Time;durP1;ratioP1;P1;durP2;ratioP2;P2;SDS_P1;SDS_P2;PMS_P1;PMS_P2;Temp;Humidity;BMP_temperature;BMP_pressure;BME280_temperature;BME280_humidity;BME280_pressure;Samples;Min_cycle;Max_cycle;Signal;HPM_P1;HPM_P2
2023/01/03 00:02:18;;;;;;;0.20;0.10;;;12.20;99.90;;;;;;20968513;28;20554;-72
2023/01/03 00:12:24;;;;;;;0.20;0.10;;;12.10;99.90;;;;;;20985801;28;20428;-71
2023/01/03 00:22:33;;;;;;;0.20;0.10;;;12.10;99.90;;;;;;20985009;28;20410;-71
2023/01/03 00:32:39;;;;;;;0.20;0.10;;;12.20;99.90;;;;;;20983339;28;20404;-72
2023/01/03 00:53:05;;;;;;;0.20;0.10;;;11.90;99.90;;;;;;20964677;28;20481;-72
2023/01/03 01:03:09;;;;;;;0.20;0.10;;;12.00;99.90;;;;;;20981036;28;20406;-70
2023/01/03 01:13:15;;;;;;;0.20;0.10;;;11.90;99.90;;;;;;20980871;28;20722;-72
2023/01/03 01:23:19;;;;;;;0.20;0.10;;;12.00;99.90;;;;;;20980300;28;20398;-70
2023/01/03 01:33:25;;;;;;;0.20;0.00;;;12.30;99.90;;;;;;20962592;28;20809;-70
2023/01/03 01:54:11;;;;;;;0.20;0.10;;;12.60;99.90;;;;;;20978970;28;20406;-71
2023/01/03 02:04:19;;;;;;;0.20;0.10;;;12.50;99.90;;;;;;20976964;28;20394;-71
2023/01/03 02:25:45;;;;;;;0.20;0.10;;;12.80;99.90;;;;;;20959743;28;20422;-72
2023/01/03 02:36:01;;;;;;;0.20;0.10;;;12.70;99.90;;;;;;20958866;28;20425;-72
2023/01/03 02:56:38;;;;;;;0.20;0.10;;;12.90;99.90;;;;;;20963949;28;20445;-72
2023/01/03 03:06:47;;;;;;;0.20;0.00;;;12.80;99.90;;;;;;20972917;28;20559;-70
2023/01/03 03:16:58;;;;;;;0.20;0.10;;;12.90;99.90;;;;;;20971848;28;20741;-70
2023/01/03 03:28:33;;;;;;;0.20;0.10;;;12.70;99.90;;;;;;20954500;28;20438;-70
2023/01/03 03:37:34;;;;;;;0.20;0.10;;;12.30;99.90;;;;;;20986798;28;20920;-70
2023/01/03 03:58:11;;;;;;;0.20;0.10;;;12.60;99.90;;;;;;20985154;28;20480;-71
2023/01/03 04:08:15;;;;;;;0.20;0.00;;;12.90;99.90;;;;;;20965816;28;20404;-71
2023/01/03 04:18:20;;;;;;;0.20;0.10;;;12.80;99.90;;;;;;20983952;28;20413;-70
2023/01/03 04:28:23;;;;;;;0.20;0.10;;;12.80;99.90;;;;;;20966690;28;20398;-71
2023/01/03 04:38:47;;;;;;;0.20;0.10;;;12.60;99.90;;;;;;20983479;28;20422;-71
2023/01/03 04:48:51;;;;;;;0.20;0.00;;;12.30;99.90;;;;;;20964290;28;20928;-71
2023/01/03 04:58:56;;;;;;;0.20;0.10;;;12.20;99.90;;;;;;20982041;28;20502;-72
2023/01/03 05:09:01;;;;;;;0.20;0.10;;;12.20;99.90;;;;;;20963205;28;21248;-71
2023/01/03 05:19:06;;;;;;;0.20;0.10;;;12.10;99.90;;;;;;20962860;28;20735;-71
2023/01/03 05:29:10;;;;;;;0.20;0.00;;;11.90;99.90;;;;;;20979208;28;20805;-71
2023/01/03 05:39:15;;;;;;;0.20;0.00;;;12.10;99.90;;;;;;20961979;28;20417;-72
2023/01/03 05:49:19;;;;;;;0.20;0.10;;;12.20;99.90;;;;;;20927423;28;20847;-71
2023/01/03 05:59:25;;;;;;;0.20;0.10;;;12.20;99.90;;;;;;20895759;28;20457;-71
2023/01/03 06:09:30;;;;;;;0.20;0.10;;;12.00;99.90;;;;;;20895369;28;20411;-71
2023/01/03 06:19:35;;;;;;;0.20;0.10;;;11.80;99.90;;;;;;20894041;28;20439;-72
2023/01/03 06:29:39;;;;;;;0.20;0.10;;;11.80;99.90;;;;;;20896793;28;20407;-71
2023/01/03 07:00:30;;;;;;;0.20;0.10;;;12.30;99.90;;;;;;20907962;28;20494;-73
2023/01/03 07:10:34;;;;;;;0.20;0.10;;;12.50;99.90;;;;;;20889348;28;20403;-72
2023/01/03 07:20:42;;;;;;;0.20;0.10;;;12.50;99.90;;;;;;20888805;28;20438;-73
2023/01/03 07:30:46;;;;;;;0.20;0.10;;;12.40;99.90;;;;;;20905653;28;20404;-72
2023/01/03 07:40:51;;;;;;;0.20;0.00;;;12.40;99.90;;;;;;20904536;28;20415;-70
2023/01/03 07:50:57;;;;;;;0.20;0.10;;;12.30;99.90;;;;;;20968790;28;20935;-71
2023/01/03 08:01:08;;;;;;;0.20;0.10;;;12.40;99.90;;;;;;20951395;28;20398;-70
2023/01/03 08:21:36;;;;;;;0.20;0.10;;;12.70;99.90;;;;;;20982114;28;20513;-70
2023/01/03 08:31:44;;;;;;;0.20;0.00;;;13.00;99.90;;;;;;20984016;28;20422;-71
2023/01/03 08:41:54;;;;;;;0.20;0.00;;;13.50;99.90;;;;;;20982271;28;20448;-71
2023/01/03 08:51:58;;;;;;;0.20;0.10;;;13.70;99.90;;;;;;20963472;28;20887;-76
2023/01/03 09:02:04;;;;;;;0.20;0.10;;;13.70;99.90;;;;;;20945385;28;20937;-70
2023/01/03 09:12:08;;;;;;;0.20;0.00;;;13.90;99.90;;;;;;20960331;28;20394;-71
2023/01/03 09:22:13;;;;;;;0.20;0.00;;;14.10;99.90;;;;;;20958364;28;20410;-70
2023/01/03 09:32:17;;;;;;;0.20;0.10;;;14.30;99.90;;;;;;20943085;28;20425;-70
2023/01/03 10:14:05;;;;;;;0.20;0.10;;;15.30;99.90;;;;;;20990546;28;20420;-70
2023/01/03 10:24:18;;;;;;;0.20;0.10;;;15.70;99.90;;;;;;20991591;28;20406;-70
2023/01/03 10:34:21;;;;;;;0.20;0.10;;;16.10;99.90;;;;;;20991356;28;20904;-73
2023/01/03 10:44:29;;;;;;;0.20;0.10;;;17.00;99.90;;;;;;20990717;28;20422;-70
2023/01/03 10:54:48;;;;;;;0.20;0.00;;;18.00;99.90;;;;;;20989355;28;20402;-72
2023/01/03 11:05:11;;;;;;;0.20;0.00;;;18.10;99.90;;;;;;20970725;28;20398;-66
2023/01/03 11:15:17;;;;;;;0.20;0.00;;;17.10;99.90;;;;;;20978757;28;20473;-69
2023/01/03 11:25:39;;;;;;;0.20;0.00;;;17.10;99.90;;;;;;20909729;28;20407;-71
2023/01/03 11:35:57;;;;;;;0.20;0.00;;;17.30;99.90;;;;;;20886249;28;20477;-71
2023/01/03 11:46:36;;;;;;;0.20;0.10;;;17.80;99.90;;;;;;20945994;28;20386;-70
2023/01/03 11:57:03;;;;;;;0.20;0.00;;;18.50;99.90;;;;;;20985593;28;20589;-70
2023/01/03 12:07:15;;;;;;;0.20;0.10;;;19.50;99.90;;;;;;20964828;28;20887;-70
2023/01/03 12:17:47;;;;;;;0.20;0.00;;;19.50;99.90;;;;;;20882991;28;20483;-69
2023/01/03 12:27:56;;;;;;;0.20;0.00;;;19.80;99.90;;;;;;20899553;28;20404;-68
2023/01/03 12:38:02;;;;;;;0.20;0.00;;;21.30;99.90;;;;;;20898938;28;20411;-68
2023/01/03 12:48:17;;;;;;;0.20;0.00;;;20.20;99.90;;;;;;20958805;28;20418;-69
2023/01/03 12:58:40;;;;;;;0.20;0.00;;;21.40;99.90;;;;;;20980407;28;20456;-71
2023/01/03 13:08:49;;;;;;;0.20;0.00;;;20.90;99.90;;;;;;20928136;28;20412;-70
2023/01/03 13:18:55;;;;;;;0.20;0.10;;;20.90;99.90;;;;;;20879308;28;20433;-70
2023/01/03 13:29:36;;;;;;;0.20;0.03;;;21.40;99.90;;;;;;20878760;28;20408;-71
2023/01/03 13:39:57;;;;;;;0.20;0.00;;;21.50;99.90;;;;;;20928876;28;20423;-68
2023/01/03 13:50:01;;;;;;;0.20;0.10;;;20.80;99.90;;;;;;20957376;28;20462;-72
2023/01/03 14:00:18;;;;;;;0.20;0.00;;;20.00;99.90;;;;;;20978087;28;20476;-70
2023/01/03 14:10:41;;;;;;;0.20;0.03;;;19.10;99.90;;;;;;20830056;28;20403;-70
2023/01/03 14:20:50;;;;;;;0.20;0.00;;;19.10;99.90;;;;;;20809835;28;20410;-69
2023/01/03 14:31:01;;;;;;;0.20;0.00;;;21.40;99.90;;;;;;20850774;28;20407;-69
2023/01/03 14:41:08;;;;;;;0.20;0.00;;;20.70;99.90;;;;;;20806484;28;20408;-65
2023/01/03 14:51:12;;;;;;;0.20;0.00;;;20.90;99.90;;;;;;20876992;28;20435;-70
2023/01/03 15:01:18;;;;;;;0.20;0.00;;;19.50;99.90;;;;;;20879787;28;20413;-69
2023/01/03 15:11:29;;;;;;;0.20;0.00;;;18.70;99.90;;;;;;20933616;28;20400;-71
2023/01/03 15:21:35;;;;;;;0.20;0.00;;;19.00;99.90;;;;;;20959800;28;20889;-71
2023/01/03 15:31:48;;;;;;;0.20;0.00;;;18.80;99.90;;;;;;20986458;28;20911;-70
2023/01/03 15:52:40;;;;;;;0.20;0.03;;;19.60;99.90;;;;;;20951610;28;20467;-69
2023/01/03 16:02:46;;;;;;;0.20;0.00;;;18.30;99.90;;;;;;20983869;28;20548;-70
2023/01/03 16:13:09;;;;;;;0.20;0.10;;;16.60;99.90;;;;;;20928430;28;20394;-70
2023/01/03 16:23:27;;;;;;;0.20;0.00;;;15.60;99.90;;;;;;20897939;28;20435;-70
2023/01/03 16:33:33;;;;;;;0.20;0.10;;;15.50;99.90;;;;;;20881756;28;20396;-70
2023/01/03 16:43:39;;;;;;;0.20;0.00;;;15.50;99.90;;;;;;20928251;28;20916;-70
2023/01/03 16:53:42;;;;;;;0.20;0.03;;;15.00;99.90;;;;;;20962238;28;20807;-70
2023/01/03 17:03:48;;;;;;;0.20;0.10;;;14.00;99.90;;;;;;20961226;28;20402;-68
2023/01/03 17:13:55;;;;;;;0.20;0.10;;;13.50;99.90;;;;;;20959605;28;20493;-69
2023/01/03 17:24:02;;;;;;;0.20;0.10;;;13.20;99.90;;;;;;20958150;28;20412;-69
2023/01/03 17:34:19;;;;;;;0.20;0.10;;;12.80;99.90;;;;;;20959621;28;20408;-70
2023/01/03 17:44:24;;;;;;;0.20;0.10;;;12.40;99.90;;;;;;20974214;28;20490;-68
2023/01/03 17:54:30;;;;;;;0.20;0.10;;;12.30;99.90;;;;;;20972079;28;20414;-62
2023/01/03 18:04:35;;;;;;;0.20;0.10;;;12.30;99.90;;;;;;20968039;28;20475;-70
2023/01/03 18:14:59;;;;;;;0.20;0.07;;;12.00;99.90;;;;;;20952102;28;20997;-69
2023/01/03 18:25:06;;;;;;;0.20;0.10;;;11.90;99.90;;;;;;20884976;28;20828;-73
2023/01/03 18:35:14;;;;;;;0.20;0.10;;;11.90;99.90;;;;;;20904194;28;20408;-70
2023/01/03 18:45:26;;;;;;;0.20;0.10;;;11.40;99.90;;;;;;20918207;28;20938;-71
2023/01/03 18:55:31;;;;;;;0.20;0.10;;;11.50;99.90;;;;;;20984934;28;20731;-71
2023/01/03 19:05:37;;;;;;;0.20;0.10;;;11.70;99.90;;;;;;20983880;28;20833;-70
2023/01/03 19:15:41;;;;;;;0.20;0.10;;;11.40;99.90;;;;;;20965147;28;20425;-68
2023/01/03 19:25:46;;;;;;;0.20;0.10;;;11.20;99.90;;;;;;20982919;28;20414;-70
2023/01/03 19:35:50;;;;;;;0.20;0.10;;;11.50;99.90;;;;;;20940328;28;20475;-69
2023/01/03 19:45:55;;;;;;;0.20;0.10;;;11.30;99.90;;;;;;20979852;28;20907;-69
2023/01/03 19:56:00;;;;;;;0.20;0.10;;;11.40;99.90;;;;;;20970172;28;20825;-70
2023/01/03 20:06:09;;;;;;;0.20;0.10;;;11.40;99.90;;;;;;20961368;28;20967;-70
2023/01/03 20:16:14;;;;;;;0.20;0.10;;;11.40;99.90;;;;;;20977352;28;20414;-70
2023/01/03 20:26:23;;;;;;;0.20;0.10;;;11.30;99.90;;;;;;20972866;28;20438;-68
2023/01/03 20:36:33;;;;;;;0.20;0.10;;;11.30;99.90;;;;;;20965910;28;20881;-69
2023/01/03 20:46:39;;;;;;;0.20;0.10;;;11.30;99.90;;;;;;20919358;28;20901;-72
2023/01/03 20:56:44;;;;;;;0.20;0.00;;;11.00;99.90;;;;;;20968059;28;20409;-71
2023/01/03 21:06:51;;;;;;;0.20;0.10;;;10.90;99.90;;;;;;20974494;28;20808;-70
2023/01/03 21:16:55;;;;;;;0.20;0.10;;;11.20;99.90;;;;;;20948716;28;20404;-72
2023/01/03 21:27:00;;;;;;;0.20;0.10;;;11.10;99.90;;;;;;20969688;28;20902;-72
2023/01/03 21:37:04;;;;;;;0.20;0.10;;;11.10;99.90;;;;;;20950266;28;20479;-72
2023/01/03 21:47:10;;;;;;;0.20;0.10;;;11.10;99.90;;;;;;20983528;28;20444;-71
2023/01/03 21:57:13;;;;;;;0.20;0.10;;;11.10;99.90;;;;;;20985578;28;20412;-71
2023/01/03 22:07:26;;;;;;;0.20;0.00;;;11.00;99.90;;;;;;20977121;28;20489;-69
2023/01/03 22:17:30;;;;;;;0.20;0.10;;;11.20;99.90;;;;;;20972865;28;20413;-70
2023/01/03 22:27:35;;;;;;;0.20;0.10;;;11.10;99.90;;;;;;20944699;28;21676;-68
2023/01/03 22:37:39;;;;;;;0.20;0.10;;;11.10;99.90;;;;;;20967894;28;20428;-70
2023/01/03 22:47:44;;;;;;;0.20;0.10;;;11.10;99.90;;;;;;20990623;28;20813;-70
2023/01/03 22:57:48;;;;;;;0.20;0.10;;;11.20;99.90;;;;;;21012259;28;20482;-70
2023/01/03 23:07:54;;;;;;;0.20;0.10;;;11.20;99.90;;;;;;20987580;28;20839;-70
2023/01/03 23:17:59;;;;;;;0.20;0.10;;;11.20;99.90;;;;;;20989445;28;20402;-71
2023/01/03 23:28:05;;;;;;;0.20;0.10;;;11.30;99.90;;;;;;20986340;28;20953;-70
2023/01/03 23:38:08;;;;;;;0.20;0.10;;;11.30;99.90;;;;;;20966413;28;20504;-71
2023/01/03 23:48:14;;;;;;;0.20;0.10;;;11.00;99.90;;;;;;20984148;28;20456;-70
2023/01/03 23:58:17;;;;;;;0.20;0.10;;;10.90;99.90;;;;;;20997234;28;20412;-70
